Pagrindinis puslapis
METAR-TAF:

METAR-TAF

Oro uostai :

Hujė, Vietnamas

platuma: 16-24N, ilguma: 107-41E, Aukštis: 17 m

Dabartinis oras

Ataskaita buvo paskelbta 19 minutes, ne 04:00 UTC
Vėjas 6 kt iš Šiaurės Rytų
Temperatūra 28°C
Drėgmė 70%
Slėgis 1015 hPa
Matomumas 10 km arba daugiau
Išsisklaidę debesys ne aukštis 1700 ft
Išsisklaidę debesys ne aukštis 5000 ft

METAR: VVPB 290400Z 05006KT 9999 SCT017 SCT050 28/22 Q1015 NOSIG

Laikas: 11:19 (04:19 UTC)

Prognozė

Ataskaita buvo paskelbta 5 valandos ir 19 minutes, ne 23:00 UTC
Prognozė galioja nuo 29 metu 00 UTC su 29 metu 24 UTC
Vėjas 4 kt iš Pietvakarių
Matomumas: 4500 m
Mažai debesys ne aukštis 1500 ft
Išsisklaidę debesys ne aukštis 6000 ft
rūkana
Tapsmas
nuo 29 metu 00 UTC su 29 metu 01 UTC
Matomumas: 8000 m
Tapsmas
nuo 29 metu 03 UTC su 29 metu 04 UTC
Vėjas 10 kt iš Rytų
Tapsmas
nuo 29 metu 12 UTC su 29 metu 13 UTC
Vėjas 6 kt iš Pietryčių

TAF: VVPB 282300Z 2900/2924 22004KT 4500 BR FEW015 SCT060 BECMG 2900/2901 8000 NSW BECMG 2903/2904 08010KT BECMG 2912/2913 14006KT

Orai ataskaitas ir orų prognozės (METAR, TAF).

turimą stotys yra geltonos ir raudonos taškus žemėlapyje.

Perkelti pele per norėdami pamatyti stoties vardą.

Tada spustelėkite, norėdami matyti oro stebėjimo ir prognozės.

Norėdami pakeisti žemėlapį: spustelėkite ant žalios mygtukų su juodo kryžiaus žemyn,; žalią mygtuką su brūkšneliu, jei norite nutolinti; arba žalių rodyklių gretimoms žemėlapius.


METAR-TAF: